Terminal Aerodrome Forecast
Issued by NWS

Home | Current Version | Previous Version | Text Only | Print | Product List | Glossary Off
Versions: 1 2 3 4 5 6 7 8 9 10 11 12 13

000
FTUS44 KTSA 301700
TAFRVS
TAF
KRVS 301720Z 3018/3118 24008G19KT P6SM FEW100 BKN250
     FM302000 34009KT P6SM SKC
     FM310000 36004KT P6SM SKC
     FM311500 01010G17KT P6SM SKC=

USA.gov is the U.S. government's official web portal to all federal, state and local government web resources and services.